Granger, Missouri
Current Conditions -  °F | °C
As of 9:55 PM on Friday 24 Oct 2014 (Local Time) from KEOK Reporting Station
Broken Clouds Broken Clouds  
Wind Chill: 61°   Ceiling: 4500
Heat Index: 61°   Visibility: 9mi
Dew Point: 59°   Wind: 5mph
Humidity: 94%   Direction: 10°N
Pressure: 29.96"   Gusts: NA
Location:  40.47°N, 91.98°W
Report Text: KEOK 250255Z AUTO 01004KT 9SM SCT035 BKN045 16/15 A2996 RMK AO2
Loading
Personal Weather Stations






























Interactive Weather Map
Tropical Storm Tracking
New forecast layout! Learn more

10-Day Weather Forecast

Advertisements
Track Severe Weather on mobile